createdAt,value
2023-03-21T00:01:52.047Z,433.00
2023-03-21T00:05:52.043Z,433.00
2023-03-21T00:09:53.686Z,430.00
2023-03-21T00:13:51.846Z,429.00
2023-03-21T00:17:51.814Z,433.00
2023-03-21T00:22:06.343Z,434.00
2023-03-21T00:25:52.747Z,431.00
2023-03-21T00:29:51.690Z,433.00
2023-03-21T00:33:51.746Z,435.00
2023-03-21T00:37:51.917Z,436.00
2023-03-21T00:41:52.149Z,437.00
2023-03-21T00:45:52.019Z,430.00
2023-03-21T00:49:52.048Z,429.00
2023-03-21T00:53:52.014Z,433.00
2023-03-21T00:58:01.244Z,434.00
2023-03-21T01:01:52.943Z,434.00
2023-03-21T01:05:51.844Z,434.00
2023-03-21T01:09:51.790Z,430.00
2023-03-21T01:14:04.282Z,432.00
2023-03-21T01:17:52.867Z,435.00
2023-03-21T01:21:51.904Z,432.00
2023-03-21T01:25:51.934Z,433.00
2023-03-21T01:29:52.078Z,432.00
2023-03-21T01:33:52.279Z,432.00
2023-03-21T01:37:52.481Z,427.00
2023-03-21T01:41:52.650Z,426.00
2023-03-21T01:45:52.911Z,426.00
2023-03-21T01:49:53.033Z,428.00
2023-03-21T01:53:53.207Z,426.00
2023-03-21T01:58:04.763Z,430.00
2023-03-21T02:01:54.090Z,427.00
2023-03-21T02:05:53.063Z,428.00
2023-03-21T02:09:53.121Z,429.00
2023-03-21T02:14:01.103Z,427.00
2023-03-21T02:17:54.304Z,426.00
2023-03-21T02:21:53.233Z,427.00
2023-03-21T02:25:53.276Z,428.00
2023-03-21T02:29:53.401Z,430.00
2023-03-21T02:33:53.593Z,429.00
2023-03-21T02:38:00.087Z,424.00
2023-03-21T02:41:54.793Z,424.00
2023-03-21T02:45:53.896Z,419.00
2023-03-21T02:49:53.825Z,424.00
2023-03-21T02:54:20.030Z,426.00
2023-03-21T02:57:56.223Z,425.00
2023-03-21T03:01:54.110Z,428.00
2023-03-21T03:05:54.277Z,430.00
2023-03-21T03:09:54.498Z,427.00
2023-03-21T03:13:54.761Z,423.00
2023-03-21T03:17:54.847Z,422.00
2023-03-21T03:21:55.067Z,419.00
2023-03-21T03:25:55.293Z,419.00
2023-03-21T03:29:55.379Z,419.00
2023-03-21T03:33:55.452Z,416.00
2023-03-21T03:37:55.569Z,420.00
2023-03-21T03:42:10.137Z,422.00
2023-03-21T03:45:56.661Z,418.00
2023-03-21T03:49:55.714Z,418.00
2023-03-21T03:53:55.758Z,417.00
2023-03-21T03:57:55.696Z,417.00
2023-03-21T04:01:55.699Z,421.00
2023-03-21T04:05:55.689Z,423.00
2023-03-21T04:09:55.598Z,423.00
2023-03-21T04:13:55.585Z,422.00
2023-03-21T04:17:55.557Z,424.00
2023-03-21T04:21:55.540Z,423.00
2023-03-21T04:25:57.083Z,427.00
2023-03-21T04:29:55.447Z,427.00
2023-03-21T04:33:55.408Z,427.00
2023-03-21T04:37:55.553Z,424.00
2023-03-21T04:41:55.495Z,425.00
2023-03-21T04:45:55.482Z,426.00
2023-03-21T04:49:55.389Z,433.00
2023-03-21T04:53:55.350Z,433.00
2023-03-21T04:57:55.298Z,427.00
2023-03-21T05:01:55.300Z,426.00
2023-03-21T05:05:55.255Z,427.00
2023-03-21T05:09:55.215Z,427.00
2023-03-21T05:13:55.168Z,432.00
2023-03-21T05:17:55.129Z,434.00
2023-03-21T05:21:55.333Z,438.00
2023-03-21T05:25:55.249Z,437.00
2023-03-21T05:29:55.202Z,443.00
2023-03-21T05:33:55.190Z,445.00
2023-03-21T05:37:55.188Z,450.00
2023-03-21T05:41:55.151Z,450.00
2023-03-21T05:45:55.098Z,446.00
2023-03-21T05:49:55.031Z,447.00
2023-03-21T05:53:55.036Z,449.00
2023-03-21T05:57:54.959Z,457.00
2023-03-21T06:01:54.927Z,452.00
2023-03-21T06:05:54.905Z,456.00
2023-03-21T06:09:54.854Z,456.00
2023-03-21T06:13:54.803Z,452.00
2023-03-21T06:17:54.783Z,460.00
2023-03-21T06:21:54.790Z,469.00
2023-03-21T06:25:54.803Z,470.00
2023-03-21T06:29:54.945Z,484.00
2023-03-21T06:33:55.032Z,581.00
2023-03-21T06:37:55.329Z,653.00
2023-03-21T06:41:55.305Z,653.00
2023-03-21T06:45:55.352Z,682.00
2023-03-21T06:49:55.444Z,775.00
2023-03-21T06:53:55.489Z,802.00
2023-03-21T06:57:55.598Z,830.00
2023-03-21T07:01:55.547Z,811.00
2023-03-21T07:05:55.538Z,762.00
2023-03-21T07:09:55.481Z,821.00
2023-03-21T07:13:55.435Z,874.00
2023-03-21T07:17:55.393Z,898.00
2023-03-21T07:21:55.359Z,950.00
2023-03-21T07:25:55.423Z,953.00
2023-03-21T07:29:55.425Z,975.00
2023-03-21T07:33:55.224Z,873.00
2023-03-21T07:37:55.186Z,972.00
2023-03-21T07:41:55.270Z,860.00
2023-03-21T07:45:55.160Z,765.00
2023-03-21T07:49:55.150Z,764.00
2023-03-21T07:53:55.158Z,840.00
2023-03-21T07:57:55.078Z,855.00
2023-03-21T08:01:55.067Z,896.00
2023-03-21T08:05:54.962Z,942.00
2023-03-21T08:09:54.972Z,974.00
2023-03-21T08:13:54.905Z,991.00
2023-03-21T08:17:54.879Z,1000.00
2023-03-21T08:21:54.850Z,1000.00
2023-03-21T08:25:54.762Z,963.00
2023-03-21T08:29:54.764Z,922.00
2023-03-21T08:33:54.749Z,907.00
2023-03-21T08:37:54.716Z,890.00
2023-03-21T08:41:54.684Z,884.00
2023-03-21T08:45:54.776Z,862.00
2023-03-21T08:49:54.584Z,873.00
2023-03-21T08:53:54.551Z,852.00
2023-03-21T08:57:54.486Z,835.00
2023-03-21T09:01:54.504Z,804.00
2023-03-21T09:05:54.429Z,790.00
2023-03-21T09:10:08.450Z,792.00
2023-03-21T09:13:55.385Z,781.00
2023-03-21T09:17:54.747Z,784.00
2023-03-21T09:21:54.358Z,785.00
2023-03-21T09:25:54.905Z,880.00
2023-03-21T09:29:54.750Z,814.00
2023-03-21T09:33:54.833Z,641.00
2023-03-21T09:37:54.823Z,601.00
2023-03-21T09:41:55.110Z,567.00
2023-03-21T09:45:54.985Z,654.00
2023-03-21T09:50:01.694Z,699.00
2023-03-21T09:53:57.109Z,763.00
2023-03-21T09:57:55.034Z,804.00
2023-03-21T10:01:55.042Z,840.00
2023-03-21T10:05:55.004Z,875.00
2023-03-21T10:09:54.971Z,913.00
2023-03-21T10:13:54.908Z,987.00
2023-03-21T10:17:54.876Z,966.00
2023-03-21T10:22:03.638Z,976.00
2023-03-21T10:25:55.797Z,996.00
2023-03-21T10:29:54.766Z,1010.00
2023-03-21T10:33:54.730Z,1028.00
2023-03-21T10:37:54.857Z,981.00
2023-03-21T10:41:54.779Z,911.00
2023-03-21T10:45:55.031Z,874.00
2023-03-21T10:50:11.150Z,811.00
2023-03-21T10:53:55.938Z,782.00
2023-03-21T10:57:54.895Z,745.00
2023-03-21T11:01:54.915Z,706.00
2023-03-21T11:05:55.097Z,678.00
2023-03-21T11:09:55.292Z,644.00
2023-03-21T11:13:55.468Z,632.00
2023-03-21T11:17:55.580Z,628.00
2023-03-21T11:21:55.868Z,621.00
2023-03-21T11:25:55.914Z,617.00
2023-03-21T11:29:56.082Z,610.00
2023-03-21T11:33:56.223Z,606.00
2023-03-21T11:37:56.472Z,602.00
2023-03-21T11:41:56.430Z,591.00
2023-03-21T11:45:56.429Z,587.00
2023-03-21T11:50:04.659Z,586.00
2023-03-21T11:53:57.224Z,583.00
2023-03-21T11:57:57.991Z,584.00
2023-03-21T12:01:56.199Z,575.00
2023-03-21T12:05:56.328Z,579.00
2023-03-21T12:09:56.488Z,572.00
2023-03-21T12:13:56.680Z,568.00
2023-03-21T12:17:56.861Z,560.00
2023-03-21T12:21:56.941Z,556.00
2023-03-21T12:25:57.083Z,555.00
2023-03-21T12:29:57.342Z,551.00
2023-03-21T12:33:57.444Z,552.00
2023-03-21T12:37:57.991Z,549.00
2023-03-21T12:41:57.396Z,549.00
2023-03-21T12:45:57.437Z,540.00
2023-03-21T12:49:57.298Z,532.00
2023-03-21T12:53:57.266Z,530.00
2023-03-21T12:57:58.034Z,532.00
2023-03-21T13:01:57.278Z,532.00
2023-03-21T13:05:57.179Z,529.00
2023-03-21T13:09:57.168Z,528.00
2023-03-21T13:13:57.097Z,522.00
2023-03-21T13:17:57.159Z,516.00
2023-03-21T13:21:57.032Z,512.00
2023-03-21T13:25:56.975Z,509.00
2023-03-21T13:29:56.984Z,508.00
2023-03-21T13:33:56.983Z,506.00
2023-03-21T13:37:56.895Z,499.00
2023-03-21T13:41:56.829Z,498.00
2023-03-21T13:45:56.938Z,492.00
2023-03-21T13:49:56.923Z,492.00
2023-03-21T13:53:57.035Z,489.00
2023-03-21T13:57:57.104Z,492.00
2023-03-21T14:01:57.182Z,488.00
2023-03-21T14:05:57.468Z,488.00
2023-03-21T14:09:57.410Z,487.00
2023-03-21T14:13:57.294Z,483.00
2023-03-21T14:17:57.240Z,482.00
2023-03-21T14:21:57.345Z,484.00
2023-03-21T14:25:57.186Z,483.00
2023-03-21T14:29:57.170Z,480.00
2023-03-21T14:33:57.133Z,475.00
2023-03-21T14:37:57.181Z,477.00
2023-03-21T14:41:57.051Z,475.00
2023-03-21T14:45:57.021Z,477.00
2023-03-21T14:49:56.962Z,475.00
2023-03-21T14:53:56.925Z,476.00
2023-03-21T14:57:56.995Z,478.00
2023-03-21T15:01:57.282Z,477.00
2023-03-21T15:05:57.159Z,476.00
2023-03-21T15:09:57.229Z,472.00
2023-03-21T15:13:57.143Z,472.00
2023-03-21T15:17:57.065Z,472.00
2023-03-21T15:21:57.043Z,474.00
2023-03-21T15:25:57.073Z,469.00
2023-03-21T15:29:56.986Z,463.00
2023-03-21T15:33:56.918Z,463.00
2023-03-21T15:37:56.921Z,466.00
2023-03-21T15:41:56.952Z,465.00
2023-03-21T15:45:56.888Z,465.00
2023-03-21T15:49:56.765Z,467.00
2023-03-21T15:53:56.729Z,466.00
2023-03-21T15:57:56.773Z,466.00
2023-03-21T16:11:55.933Z,454.00
2023-03-21T16:15:56.188Z,453.00
2023-03-21T16:19:56.296Z,448.00
2023-03-21T16:23:56.423Z,447.00
2023-03-21T16:27:56.480Z,446.00
2023-03-21T16:31:56.529Z,449.00
2023-03-21T16:35:56.568Z,451.00
2023-03-21T16:39:56.660Z,449.00
2023-03-21T16:43:56.564Z,448.00
2023-03-21T16:47:56.579Z,454.00
2023-03-21T16:51:56.555Z,455.00
2023-03-21T16:55:56.578Z,450.00
2023-03-21T16:59:56.523Z,449.00
2023-03-21T17:03:56.530Z,447.00
2023-03-21T17:07:56.530Z,445.00
2023-03-21T17:11:56.485Z,447.00
2023-03-21T17:15:56.515Z,441.00
2023-03-21T17:19:56.499Z,445.00
2023-03-21T17:23:56.495Z,435.00
2023-03-21T17:27:56.504Z,440.00
2023-03-21T17:31:56.479Z,435.00
2023-03-21T17:35:56.525Z,432.00
2023-03-21T17:39:56.480Z,432.00
2023-03-21T17:43:56.492Z,428.00
2023-03-21T17:47:56.605Z,429.00
2023-03-21T17:51:56.612Z,426.00
2023-03-21T17:55:56.645Z,432.00
2023-03-21T17:59:56.693Z,431.00
2023-03-21T18:03:56.679Z,434.00
2023-03-21T18:08:12.856Z,430.00
2023-03-21T18:11:57.635Z,425.00
2023-03-21T18:15:56.708Z,423.00
2023-03-21T18:19:56.725Z,421.00
2023-03-21T18:23:56.523Z,424.00
2023-03-21T18:28:10.621Z,424.00
2023-03-21T18:32:05.975Z,428.00
2023-03-21T18:35:59.583Z,427.00
2023-03-21T18:39:56.373Z,421.00
2023-03-21T18:44:04.752Z,424.00
2023-03-21T18:47:57.332Z,424.00
2023-03-21T18:51:56.310Z,425.00
2023-03-21T18:55:56.310Z,428.00
2023-03-21T18:59:56.217Z,430.00
2023-03-21T19:04:16.505Z,433.00
2023-03-21T19:07:57.102Z,444.00
2023-03-21T19:11:56.093Z,451.00
2023-03-21T19:15:56.343Z,450.00
2023-03-21T19:19:56.026Z,450.00
2023-03-21T19:27:56.934Z,443.00
2023-03-21T19:31:55.950Z,439.00
2023-03-21T19:36:13.029Z,438.00
2023-03-21T19:39:56.841Z,436.00
2023-03-21T19:43:56.658Z,438.00
2023-03-21T19:47:55.824Z,436.00
2023-03-21T19:51:55.753Z,436.00
2023-03-21T19:55:56.037Z,437.00
2023-03-21T19:59:55.770Z,433.00
2023-03-21T20:03:55.880Z,433.00
2023-03-21T20:07:55.929Z,439.00
2023-03-21T20:11:56.035Z,443.00
2023-03-21T20:16:00.381Z,442.00
2023-03-21T20:19:57.076Z,439.00
2023-03-21T20:23:56.004Z,438.00
2023-03-21T20:28:12.645Z,439.00
2023-03-21T20:31:56.986Z,438.00
2023-03-21T20:39:56.928Z,440.00
2023-03-21T20:44:39.085Z,439.00
2023-03-21T20:47:56.855Z,439.00
2023-03-21T20:52:49.773Z,438.00
2023-03-21T20:55:56.738Z,440.00
2023-03-21T20:59:55.704Z,434.00
2023-03-21T21:03:55.702Z,433.00
2023-03-21T21:07:55.634Z,435.00
2023-03-21T21:12:11.358Z,434.00
2023-03-21T21:15:56.743Z,429.00
2023-03-21T21:19:55.686Z,429.00
2023-03-21T21:23:55.584Z,431.00
2023-03-21T21:27:55.568Z,430.00
2023-03-21T21:31:55.591Z,426.00
2023-03-21T21:35:55.717Z,431.00
2023-03-21T21:39:55.863Z,429.00
2023-03-21T21:43:55.944Z,427.00
2023-03-21T21:47:56.132Z,420.00
2023-03-21T21:51:56.348Z,424.00
2023-03-21T21:55:56.474Z,422.00
2023-03-21T21:59:56.605Z,426.00
2023-03-21T22:03:56.716Z,423.00
2023-03-21T22:07:56.887Z,418.00
2023-03-21T22:11:56.955Z,419.00
2023-03-21T22:15:57.125Z,419.00
2023-03-21T22:20:05.765Z,421.00
2023-03-21T22:23:58.175Z,419.00
2023-03-21T22:27:57.169Z,423.00
2023-03-21T22:31:57.102Z,420.00
2023-03-21T22:35:57.184Z,421.00
2023-03-21T22:39:57.348Z,419.00
2023-03-21T22:44:04.129Z,421.00
2023-03-21T22:47:57.568Z,422.00
2023-03-21T22:51:57.436Z,420.00
2023-03-21T22:55:57.403Z,420.00
2023-03-21T22:59:57.343Z,416.00
2023-03-21T23:03:57.374Z,415.00
2023-03-21T23:07:57.321Z,414.00
2023-03-21T23:11:57.254Z,413.00
2023-03-21T23:15:57.308Z,413.00
2023-03-21T23:19:57.215Z,417.00
2023-03-21T23:23:57.297Z,418.00
2023-03-21T23:27:57.474Z,416.00
2023-03-21T23:31:57.630Z,419.00
2023-03-21T23:35:57.946Z,418.00
2023-03-21T23:39:57.999Z,418.00
2023-03-21T23:43:58.184Z,417.00
2023-03-21T23:47:58.413Z,409.00
2023-03-21T23:51:58.563Z,411.00
2023-03-21T23:55:58.740Z,412.00
2023-03-21T23:59:58.915Z,414.00
